createdAt,value
2018-12-01T00:01:51.204Z,13.45
2018-12-01T00:04:18.578Z,11.88
2018-12-01T00:06:46.087Z,11.73
2018-12-01T00:09:13.466Z,11.95
2018-12-01T00:11:40.929Z,12.10
2018-12-01T00:14:08.249Z,9.25
2018-12-01T00:16:35.537Z,9.68
2018-12-01T00:19:02.914Z,9.20
2018-12-01T00:21:30.545Z,9.95
2018-12-01T00:23:58.735Z,7.40
2018-12-01T00:26:26.319Z,8.55
2018-12-01T00:28:53.700Z,8.50
2018-12-01T00:31:20.996Z,9.45
2018-12-01T00:33:48.354Z,9.50
2018-12-01T00:36:15.873Z,9.00
2018-12-01T00:38:43.183Z,7.97
2018-12-01T00:41:10.478Z,8.88
2018-12-01T00:43:37.739Z,7.50
2018-12-01T00:46:05.127Z,8.18
2018-12-01T00:48:32.540Z,9.00
2018-12-01T00:51:00.122Z,9.23
2018-12-01T00:53:27.826Z,9.10
2018-12-01T00:55:55.272Z,8.48
2018-12-01T00:58:22.638Z,7.78
2018-12-01T01:00:49.944Z,9.40
2018-12-01T01:03:17.543Z,7.62
2018-12-01T01:05:44.961Z,9.38
2018-12-01T01:08:12.312Z,8.65
2018-12-01T01:10:39.672Z,8.23
2018-12-01T01:13:06.986Z,9.45
2018-12-01T01:15:34.281Z,9.05
2018-12-01T01:18:01.863Z,10.00
2018-12-01T01:20:30.046Z,9.80
2018-12-01T01:22:57.952Z,9.43
2018-12-01T01:25:25.357Z,9.38
2018-12-01T01:27:52.759Z,9.43
2018-12-01T01:30:20.883Z,9.25
2018-12-01T01:32:49.007Z,11.08
2018-12-01T01:35:16.565Z,9.30
2018-12-01T01:37:43.880Z,9.85
2018-12-01T01:40:13.187Z,8.70
2018-12-01T01:42:40.498Z,10.45
2018-12-01T01:45:10.151Z,10.60
2018-12-01T01:47:37.472Z,10.23
2018-12-01T01:50:07.008Z,10.63
2018-12-01T01:52:34.308Z,10.35
2018-12-01T01:55:01.838Z,10.63
2018-12-01T01:57:29.790Z,11.73
2018-12-01T01:59:57.738Z,10.80
2018-12-01T02:02:25.188Z,9.80
2018-12-01T02:04:52.535Z,10.58
2018-12-01T02:07:19.856Z,9.63
2018-12-01T02:09:47.432Z,9.90
2018-12-01T02:12:14.788Z,9.30
2018-12-01T02:14:42.115Z,9.30
2018-12-01T02:17:09.398Z,9.73
2018-12-01T02:19:36.677Z,10.30
2018-12-01T02:22:04.038Z,10.55
2018-12-01T02:24:31.669Z,10.00
2018-12-01T02:26:59.556Z,9.00
2018-12-01T02:29:27.976Z,9.63
2018-12-01T02:31:55.364Z,10.93
2018-12-01T02:34:22.868Z,10.25
2018-12-01T02:36:50.196Z,11.50
2018-12-01T02:39:17.668Z,9.78
2018-12-01T02:41:45.041Z,10.95
2018-12-01T02:44:23.550Z,9.43
2018-12-01T02:47:01.118Z,9.95
2018-12-01T02:49:29.203Z,9.25
2018-12-01T02:51:57.135Z,9.70
2018-12-01T02:54:24.490Z,8.95
2018-12-01T02:56:51.764Z,10.38
2018-12-01T02:59:19.058Z,10.10
2018-12-01T03:01:46.797Z,10.80
2018-12-01T03:04:14.223Z,9.98
2018-12-01T03:06:41.595Z,10.65
2018-12-01T03:09:08.891Z,12.05
2018-12-01T03:11:36.182Z,10.95
2018-12-01T03:14:03.557Z,10.78
2018-12-01T03:16:31.145Z,11.68
2018-12-01T03:18:59.060Z,11.10
2018-12-01T03:21:26.767Z,12.28
2018-12-01T03:23:54.123Z,10.45
2018-12-01T03:26:21.447Z,11.25
2018-12-01T03:28:48.769Z,10.82
2018-12-01T03:31:16.401Z,11.30
2018-12-01T03:33:43.701Z,11.05
2018-12-01T03:36:11.003Z,10.32
2018-12-01T03:38:38.352Z,10.38
2018-12-01T03:41:05.637Z,10.45
2018-12-01T03:43:33.017Z,10.80
2018-12-01T03:46:00.588Z,10.95
2018-12-01T03:48:28.706Z,11.73
2018-12-01T03:50:57.173Z,10.50
2018-12-01T03:53:24.688Z,11.08
2018-12-01T03:55:51.968Z,11.00
2018-12-01T03:58:19.242Z,11.25
2018-12-01T04:00:46.830Z,11.08
2018-12-01T04:03:14.160Z,11.73
2018-12-01T04:05:42.534Z,12.45
2018-12-01T04:08:09.870Z,10.88
2018-12-01T04:10:37.158Z,10.75
2018-12-01T04:13:04.598Z,10.43
2018-12-01T04:15:32.099Z,11.25
2018-12-01T04:18:00.123Z,10.18
2018-12-01T04:20:28.156Z,10.75
2018-12-01T04:22:55.816Z,11.78
2018-12-01T04:25:23.416Z,11.05
2018-12-01T04:27:50.799Z,10.75
2018-12-01T04:30:19.984Z,10.78
2018-12-01T04:32:47.557Z,11.00
2018-12-01T04:35:20.432Z,10.98
2018-12-01T04:37:52.428Z,11.25
2018-12-01T04:40:19.857Z,10.45
2018-12-01T04:42:47.741Z,11.60
2018-12-01T04:45:15.361Z,10.00
2018-12-01T04:47:42.920Z,11.00
2018-12-01T04:50:11.436Z,10.30
2018-12-01T04:52:41.786Z,10.00
2018-12-01T04:55:10.181Z,10.10
2018-12-01T04:57:37.432Z,10.55
2018-12-01T05:00:07.217Z,10.80
2018-12-01T05:02:34.549Z,10.18
2018-12-01T05:05:02.263Z,9.53
2018-12-01T05:07:29.959Z,9.80
2018-12-01T05:09:57.837Z,10.88
2018-12-01T05:12:25.451Z,24.00
2018-12-01T05:14:52.767Z,14.65
2018-12-01T05:17:20.071Z,11.40
2018-12-01T05:19:47.661Z,12.25
2018-12-01T05:22:15.161Z,10.70
2018-12-01T05:24:42.499Z,8.90
2018-12-01T05:27:09.790Z,9.95
2018-12-01T05:29:37.081Z,13.70
2018-12-01T05:32:04.895Z,19.12
2018-12-01T05:34:32.342Z,23.20
2018-12-01T05:37:00.021Z,14.07
2018-12-01T05:39:27.907Z,12.28
2018-12-01T05:41:55.352Z,9.80
2018-12-01T05:44:22.717Z,7.75
2018-12-01T05:46:50.040Z,6.08
2018-12-01T05:49:17.426Z,6.40
2018-12-01T05:51:44.816Z,9.63
2018-12-01T05:54:12.182Z,9.20
2018-12-01T05:56:39.464Z,8.03
2018-12-01T05:59:06.759Z,6.67
2018-12-01T06:01:34.054Z,5.40
2018-12-01T06:04:01.753Z,6.20
2018-12-01T06:06:29.522Z,5.73
2018-12-01T06:08:57.440Z,4.30
2018-12-01T06:11:24.763Z,4.97
2018-12-01T06:13:52.089Z,4.43
2018-12-01T06:16:19.390Z,4.83
2018-12-01T06:18:48.682Z,5.50
2018-12-01T06:21:16.239Z,6.10
2018-12-01T06:23:43.574Z,5.77
2018-12-01T06:26:10.933Z,6.47
2018-12-01T06:28:38.192Z,6.00
2018-12-01T06:31:05.552Z,7.17
2018-12-01T06:33:33.220Z,6.75
2018-12-01T06:36:01.002Z,7.03
2018-12-01T06:38:29.127Z,6.40
2018-12-01T06:40:57.408Z,6.35
2018-12-01T06:43:24.762Z,6.62
2018-12-01T06:45:52.020Z,7.70
2018-12-01T06:48:19.412Z,8.20
2018-12-01T06:50:46.992Z,6.75
2018-12-01T06:53:14.318Z,7.83
2018-12-01T06:55:41.733Z,7.05
2018-12-01T06:58:09.026Z,6.75
2018-12-01T07:00:36.341Z,8.63
2018-12-01T07:03:03.650Z,6.92
2018-12-01T07:05:31.378Z,8.35
2018-12-01T07:07:59.602Z,8.60
2018-12-01T07:10:27.642Z,7.87
2018-12-01T07:13:00.149Z,7.90
2018-12-01T07:15:42.019Z,7.60
2018-12-01T07:18:20.495Z,7.25
2018-12-01T07:20:47.986Z,6.25
2018-12-01T07:23:15.487Z,6.80
2018-12-01T07:25:42.823Z,6.22
2018-12-01T07:28:10.525Z,6.70
2018-12-01T07:30:37.865Z,7.37
2018-12-01T07:33:05.213Z,9.00
2018-12-01T07:35:32.656Z,9.95
2018-12-01T07:38:00.613Z,9.13
2018-12-01T07:40:28.441Z,11.12
2018-12-01T07:42:56.171Z,10.20
2018-12-01T07:45:23.648Z,10.60
2018-12-01T07:47:50.935Z,10.25
2018-12-01T07:50:18.573Z,9.88
2018-12-01T07:52:48.122Z,8.45
2018-12-01T07:55:15.457Z,8.50
2018-12-01T07:57:42.805Z,8.40
2018-12-01T08:00:11.576Z,9.15
2018-12-01T08:02:38.997Z,10.38
2018-12-01T08:05:07.431Z,9.35
2018-12-01T08:07:34.726Z,9.60
2018-12-01T08:10:02.490Z,10.38
2018-12-01T08:12:30.647Z,8.18
2018-12-01T08:14:59.096Z,7.95
2018-12-01T08:17:27.097Z,7.53
2018-12-01T08:19:54.620Z,7.08
2018-12-01T08:22:22.238Z,7.12
2018-12-01T08:27:54.855Z,7.47
2018-12-01T08:30:24.282Z,8.70
2018-12-01T08:32:51.577Z,7.30
2018-12-01T08:35:18.972Z,7.37
2018-12-01T08:37:46.238Z,5.90
2018-12-01T08:40:16.560Z,9.10
2018-12-01T08:42:43.883Z,9.53
2018-12-01T08:45:11.214Z,8.13
2018-12-01T08:47:39.064Z,7.65
2018-12-01T08:50:12.577Z,7.40
2018-12-01T08:52:39.987Z,7.67
2018-12-01T08:55:10.560Z,7.60
2018-12-01T08:57:37.863Z,6.95
2018-12-01T09:00:10.133Z,6.65
2018-12-01T09:02:37.431Z,5.97
2018-12-01T09:05:05.599Z,5.75
2018-12-01T09:07:32.918Z,5.97
2018-12-01T09:10:00.213Z,6.40
2018-12-01T09:12:27.530Z,6.03
2018-12-01T09:14:54.841Z,4.60
2018-12-01T09:17:22.134Z,5.95
2018-12-01T09:19:49.398Z,5.85
2018-12-01T09:22:16.706Z,6.10
2018-12-01T09:24:44.014Z,5.03
2018-12-01T09:27:11.331Z,5.87
2018-12-01T09:29:38.672Z,4.85
2018-12-01T09:32:06.028Z,5.75
2018-12-01T09:34:33.353Z,6.55
2018-12-01T09:37:00.654Z,5.40
2018-12-01T09:39:27.989Z,5.87
2018-12-01T09:41:55.299Z,4.95
2018-12-01T09:44:22.645Z,5.30
2018-12-01T09:46:49.913Z,5.00
2018-12-01T09:49:17.244Z,4.90
2018-12-01T09:51:44.563Z,5.20
2018-12-01T09:54:11.884Z,6.05
2018-12-01T09:56:39.202Z,5.08
2018-12-01T09:59:06.542Z,5.25
2018-12-01T10:01:33.874Z,5.35
2018-12-01T10:04:01.193Z,5.50
2018-12-01T10:06:28.675Z,4.80
2018-12-01T10:08:56.042Z,6.45
2018-12-01T10:11:23.337Z,6.03
2018-12-01T10:13:50.669Z,5.40
2018-12-01T10:16:18.020Z,5.45
2018-12-01T10:18:45.345Z,5.37
2018-12-01T10:21:12.667Z,5.17
2018-12-01T10:23:39.972Z,5.00
2018-12-01T10:26:07.275Z,4.03
2018-12-01T10:28:34.666Z,3.55
2018-12-01T10:31:02.191Z,3.90
2018-12-01T10:33:29.509Z,3.87
2018-12-01T10:35:56.844Z,3.70
2018-12-01T10:38:24.192Z,4.70
2018-12-01T10:40:51.584Z,3.95
2018-12-01T10:43:18.922Z,3.75
2018-12-01T10:45:46.222Z,4.87
2018-12-01T10:48:13.568Z,4.60
2018-12-01T10:50:40.869Z,4.58
2018-12-01T10:53:08.211Z,3.83
2018-12-01T10:55:35.537Z,4.00
2018-12-01T10:58:04.375Z,4.80
2018-12-01T11:00:37.500Z,4.55
2018-12-01T11:03:06.571Z,4.65
2018-12-01T11:05:35.917Z,4.80
2018-12-01T11:08:05.075Z,4.50
2018-12-01T11:10:32.447Z,3.80
2018-12-01T11:12:59.811Z,4.53
2018-12-01T11:15:27.159Z,4.47
2018-12-01T11:17:54.489Z,4.80
2018-12-01T11:20:22.123Z,4.17
2018-12-01T11:22:49.437Z,3.90
2018-12-01T11:25:16.729Z,4.73
2018-12-01T11:27:44.099Z,5.00
2018-12-01T11:30:14.558Z,4.20
2018-12-01T11:32:41.971Z,4.57
2018-12-01T11:35:09.359Z,4.43
2018-12-01T11:37:36.818Z,4.47
2018-12-01T11:40:06.186Z,4.93
2018-12-01T11:42:33.494Z,4.17
2018-12-01T11:45:00.822Z,4.23
2018-12-01T11:47:28.161Z,5.13
2018-12-01T11:49:55.466Z,4.20
2018-12-01T11:52:22.773Z,4.50
2018-12-01T11:54:51.205Z,4.33
2018-12-01T11:57:17.498Z,4.63
2018-12-01T11:59:44.844Z,4.73
2018-12-01T12:02:12.134Z,5.03
2018-12-01T12:04:39.566Z,4.47
2018-12-01T12:07:16.984Z,4.23
2018-12-01T12:09:44.318Z,4.33
2018-12-01T12:12:11.650Z,4.60
2018-12-01T12:14:39.728Z,3.90
2018-12-01T12:17:07.084Z,4.43
2018-12-01T12:19:34.444Z,4.37
2018-12-01T12:22:01.826Z,4.00
2018-12-01T12:24:29.136Z,3.50
2018-12-01T12:26:56.453Z,3.90
2018-12-01T12:29:23.797Z,3.70
2018-12-01T12:31:51.128Z,4.00
2018-12-01T12:34:18.478Z,3.70
2018-12-01T12:36:45.828Z,3.70
2018-12-01T12:39:13.168Z,3.80
2018-12-01T12:41:40.496Z,3.90
2018-12-01T12:44:07.836Z,3.60
2018-12-01T12:46:35.124Z,4.70
2018-12-01T12:49:02.454Z,3.70
2018-12-01T12:51:29.746Z,3.53
2018-12-01T12:53:57.072Z,3.53
2018-12-01T12:56:24.359Z,3.50
2018-12-01T12:58:51.686Z,3.83
2018-12-01T13:01:19.027Z,3.43
2018-12-01T13:03:46.348Z,3.80
2018-12-01T13:06:13.658Z,3.90
2018-12-01T13:08:40.941Z,3.67
2018-12-01T13:11:08.325Z,3.80
2018-12-01T13:13:35.613Z,3.70
2018-12-01T13:16:02.953Z,4.20
2018-12-01T13:18:30.234Z,3.50
2018-12-01T13:20:57.631Z,4.20
2018-12-01T13:23:24.944Z,4.23
2018-12-01T13:25:52.311Z,3.93
2018-12-01T13:28:22.109Z,4.37
2018-12-01T13:30:59.097Z,4.00
2018-12-01T13:33:26.678Z,4.23
2018-12-01T13:35:54.325Z,4.40
2018-12-01T13:38:21.693Z,4.20
2018-12-01T13:40:49.110Z,5.07
2018-12-01T13:43:16.381Z,4.13
2018-12-01T13:45:43.729Z,5.50
2018-12-01T13:48:10.995Z,5.20
2018-12-01T13:50:38.589Z,4.83
2018-12-01T13:53:07.519Z,4.27
2018-12-01T13:55:34.863Z,3.73
2018-12-01T13:58:02.178Z,3.93
2018-12-01T14:00:29.536Z,4.30
2018-12-01T14:02:56.864Z,4.73
2018-12-01T14:05:24.222Z,5.37
2018-12-01T14:07:51.592Z,4.70
2018-12-01T14:10:19.923Z,4.30
2018-12-01T14:12:51.044Z,4.00
2018-12-01T14:15:19.628Z,5.27
2018-12-01T14:17:47.596Z,4.57
2018-12-01T14:20:15.563Z,4.83
2018-12-01T14:22:43.544Z,4.10
2018-12-01T14:25:11.566Z,3.80
2018-12-01T14:27:39.820Z,5.00
2018-12-01T14:30:12.346Z,4.43
2018-12-01T14:32:39.661Z,4.53
2018-12-01T14:35:09.424Z,4.47
2018-12-01T14:37:36.722Z,4.20
2018-12-01T14:40:05.996Z,4.37
2018-12-01T14:42:33.312Z,4.30
2018-12-01T14:45:00.696Z,4.10
2018-12-01T14:47:29.027Z,4.67
2018-12-01T14:49:56.420Z,4.90
2018-12-01T14:52:23.827Z,4.57
2018-12-01T14:54:51.248Z,4.13
2018-12-01T14:57:18.661Z,4.10
2018-12-01T14:59:46.018Z,4.37
2018-12-01T15:02:13.435Z,5.05
2018-12-01T15:04:43.143Z,4.50
2018-12-01T15:07:10.685Z,4.23
2018-12-01T15:09:38.029Z,4.37
2018-12-01T15:12:05.723Z,7.80
2018-12-01T15:14:33.094Z,9.63
2018-12-01T15:17:00.487Z,9.18
2018-12-01T15:19:27.817Z,8.00
2018-12-01T15:21:55.147Z,8.93
2018-12-01T15:24:22.460Z,7.55
2018-12-01T15:26:49.804Z,6.85
2018-12-01T15:29:17.197Z,7.40
2018-12-01T15:31:44.613Z,7.70
2018-12-01T15:34:11.913Z,11.28
2018-12-01T15:36:39.287Z,8.75
2018-12-01T15:39:09.686Z,7.40
2018-12-01T15:41:37.057Z,6.92
2018-12-01T15:44:05.119Z,6.55
2018-12-01T15:46:32.511Z,9.50
2018-12-01T15:48:59.920Z,9.78
2018-12-01T15:51:27.260Z,10.10
2018-12-01T15:53:54.624Z,8.50
2018-12-01T15:56:21.962Z,7.00
2018-12-01T15:58:49.344Z,7.72
2018-12-01T16:01:16.710Z,6.72
2018-12-01T16:03:44.026Z,8.20
2018-12-01T16:06:12.371Z,7.13
2018-12-01T16:08:39.876Z,7.17
2018-12-01T16:11:07.251Z,7.27
2018-12-01T16:13:34.630Z,8.00
2018-12-01T16:16:06.958Z,7.23
2018-12-01T16:18:34.327Z,5.03
2018-12-01T16:21:01.676Z,5.13
2018-12-01T16:23:29.045Z,5.20
2018-12-01T16:25:56.354Z,4.60
2018-12-01T16:28:23.670Z,4.13
2018-12-01T16:30:51.057Z,4.67
2018-12-01T16:33:19.405Z,5.50
2018-12-01T16:35:47.198Z,4.60
2018-12-01T16:38:17.169Z,5.20
2018-12-01T16:40:51.860Z,5.37
2018-12-01T16:43:19.217Z,5.73
2018-12-01T16:45:48.057Z,5.97
2018-12-01T16:48:15.431Z,6.07
2018-12-01T16:50:42.891Z,5.92
2018-12-01T16:53:12.133Z,5.92
2018-12-01T16:55:39.490Z,6.67
2018-12-01T16:58:06.900Z,6.17
2018-12-01T17:00:34.257Z,7.00
2018-12-01T17:03:01.615Z,6.45
2018-12-01T17:05:30.527Z,6.45
2018-12-01T17:07:57.843Z,6.67
2018-12-01T17:10:25.192Z,7.10
2018-12-01T17:12:54.867Z,7.72
2018-12-01T17:15:22.323Z,6.87
2018-12-01T17:17:49.703Z,7.37
2018-12-01T17:20:17.602Z,6.55
2018-12-01T17:22:49.131Z,7.65
2018-12-01T17:25:16.575Z,7.95
2018-12-01T17:27:44.440Z,7.33
2018-12-01T17:30:13.072Z,6.70
2018-12-01T17:32:40.771Z,6.87
2018-12-01T17:35:10.154Z,9.00
2018-12-01T17:37:37.487Z,7.90
2018-12-01T17:40:09.017Z,7.42
2018-12-01T17:42:36.422Z,7.85
2018-12-01T17:45:04.287Z,8.43
2018-12-01T17:47:31.611Z,8.53
2018-12-01T17:49:59.063Z,8.80
2018-12-01T17:52:26.488Z,8.45
2018-12-01T17:54:53.921Z,8.95
2018-12-01T17:57:21.393Z,15.78
2018-12-01T17:59:48.736Z,15.85
2018-12-01T18:02:16.086Z,15.60
2018-12-01T18:04:43.436Z,14.03
2018-12-01T18:07:10.870Z,13.53
2018-12-01T18:09:38.268Z,13.25
2018-12-01T18:12:05.870Z,13.13
2018-12-01T18:14:33.241Z,12.50
2018-12-01T18:17:00.611Z,14.38
2018-12-01T18:19:28.024Z,13.45
2018-12-01T18:21:55.375Z,16.10
2018-12-01T18:24:23.582Z,13.85
2018-12-01T18:26:50.975Z,12.60
2018-12-01T18:29:18.357Z,12.25
2018-12-01T18:31:45.722Z,10.80
2018-12-01T18:34:14.466Z,11.78
2018-12-01T18:36:41.838Z,12.30
2018-12-01T18:39:12.518Z,15.30
2018-12-01T18:41:39.909Z,13.22
2018-12-01T18:44:07.372Z,15.00
2018-12-01T18:46:34.684Z,15.00
2018-12-01T18:49:02.068Z,13.58
2018-12-01T18:51:29.484Z,17.12
2018-12-01T18:53:56.894Z,20.92
2018-12-01T18:56:24.337Z,20.45
2018-12-01T18:58:51.799Z,33.73
2018-12-01T19:01:19.300Z,40.50
2018-12-01T19:03:53.381Z,43.00
2018-12-01T19:06:20.784Z,27.67
2018-12-01T19:08:48.218Z,30.88
2018-12-01T19:11:15.681Z,32.40
2018-12-01T19:13:43.820Z,24.12
2018-12-01T19:16:11.329Z,23.35
2018-12-01T19:18:38.794Z,25.75
2018-12-01T19:21:06.213Z,25.08
2018-12-01T19:23:33.665Z,22.32
2018-12-01T19:26:01.109Z,19.17
2018-12-01T19:28:28.540Z,20.52
2018-12-01T19:30:56.060Z,22.40
2018-12-01T19:33:23.896Z,19.27
2018-12-01T19:35:52.453Z,28.05
2018-12-01T19:38:24.364Z,22.90
2018-12-01T19:40:51.878Z,21.10
2018-12-01T19:43:19.344Z,17.00
2018-12-01T19:45:46.784Z,16.17
2018-12-01T19:48:14.233Z,15.35
2018-12-01T19:50:41.769Z,16.25
2018-12-01T19:53:10.657Z,18.62
2018-12-01T19:55:38.238Z,19.57
2018-12-01T19:58:10.589Z,23.98
2018-12-01T20:00:38.142Z,22.20
2018-12-01T20:03:07.661Z,20.12
2018-12-01T20:05:35.087Z,20.55
2018-12-01T20:08:02.557Z,20.60
2018-12-01T20:10:41.085Z,20.95
2018-12-01T20:13:11.044Z,20.50
2018-12-01T20:15:42.299Z,19.52
2018-12-01T20:18:13.912Z,15.48
2018-12-01T20:20:41.418Z,17.05
2018-12-01T20:23:09.854Z,20.65
2018-12-01T20:25:37.391Z,22.30
2018-12-01T20:28:06.032Z,20.05
2018-12-01T20:30:33.534Z,24.67
2018-12-01T20:33:01.018Z,24.45
2018-12-01T20:35:31.834Z,19.75
2018-12-01T20:38:03.925Z,23.10
2018-12-01T20:40:32.384Z,21.68
2018-12-01T20:43:00.860Z,23.40
2018-12-01T20:45:28.305Z,22.85
2018-12-01T20:47:55.764Z,22.05
2018-12-01T20:50:23.276Z,24.70
2018-12-01T20:52:50.784Z,26.25
2018-12-01T20:55:21.891Z,31.00
2018-12-01T20:57:51.449Z,27.73
2018-12-01T21:00:19.141Z,28.02
2018-12-01T21:02:46.584Z,29.60
2018-12-01T21:05:16.875Z,31.95
2018-12-01T21:07:45.009Z,32.10
2018-12-01T21:10:16.317Z,32.35
2018-12-01T21:12:43.893Z,29.35
2018-12-01T21:15:12.341Z,28.60
2018-12-01T21:17:41.122Z,27.07
2018-12-01T21:20:11.149Z,26.33
2018-12-01T21:22:38.650Z,24.63
2018-12-01T21:25:08.841Z,24.12
2018-12-01T21:27:36.270Z,26.65
2018-12-01T21:30:06.516Z,25.52
2018-12-01T21:32:34.570Z,32.45
2018-12-01T21:35:02.056Z,28.52
2018-12-01T21:37:29.513Z,26.45
2018-12-01T21:39:56.902Z,27.25
2018-12-01T21:42:24.323Z,26.42
2018-12-01T21:44:51.770Z,28.73
2018-12-01T21:47:19.223Z,24.80
2018-12-01T21:49:47.650Z,25.02
2018-12-01T21:52:15.092Z,26.45
2018-12-01T21:54:42.458Z,26.30
2018-12-01T21:57:09.911Z,24.85
2018-12-01T21:59:37.358Z,24.90
2018-12-01T22:02:06.191Z,26.87
2018-12-01T22:04:33.653Z,25.48
2018-12-01T22:07:01.078Z,20.65
2018-12-01T22:09:28.477Z,21.42
2018-12-01T22:11:55.916Z,24.80
2018-12-01T22:14:23.445Z,24.18
2018-12-01T22:16:50.862Z,27.65
2018-12-01T22:19:18.365Z,26.85
2018-12-01T22:21:45.850Z,27.15
2018-12-01T22:24:13.893Z,30.00
2018-12-01T22:26:41.277Z,28.25
2018-12-01T22:29:08.686Z,26.23
2018-12-01T22:31:36.028Z,27.93
2018-12-01T22:34:03.526Z,26.93
2018-12-01T22:36:30.872Z,26.60
2018-12-01T22:38:58.238Z,25.15
2018-12-01T22:41:26.255Z,28.95
2018-12-01T22:43:53.626Z,23.62
2018-12-01T22:46:21.113Z,29.50
2018-12-01T22:48:48.420Z,26.25
2018-12-01T22:51:15.772Z,22.90
2018-12-01T22:53:43.074Z,27.32
2018-12-01T22:56:10.424Z,24.82
2018-12-01T22:58:37.702Z,26.52
2018-12-01T23:01:05.832Z,32.33
2018-12-01T23:03:35.508Z,25.70
2018-12-01T23:06:02.858Z,28.30
2018-12-01T23:08:30.163Z,26.23
2018-12-01T23:10:57.489Z,25.35
2018-12-01T23:13:24.864Z,24.40
2018-12-01T23:15:52.302Z,22.90
2018-12-01T23:18:21.159Z,25.52
2018-12-01T23:20:48.898Z,23.15
2018-12-01T23:23:16.542Z,26.60
2018-12-01T23:25:43.857Z,24.12
2018-12-01T23:28:11.482Z,23.87
2018-12-01T23:30:40.113Z,22.77
2018-12-01T23:33:12.608Z,20.77
2018-12-01T23:35:40.201Z,21.75
2018-12-01T23:38:07.584Z,23.10
2018-12-01T23:40:35.196Z,21.20
2018-12-01T23:43:02.515Z,24.77
2018-12-01T23:45:29.896Z,21.90
2018-12-01T23:47:57.192Z,19.30
2018-12-01T23:50:25.477Z,19.12
2018-12-01T23:52:54.097Z,22.93
2018-12-01T23:55:21.467Z,21.80
2018-12-01T23:57:48.811Z,21.97
